sensor_id;sensor_type;location;lat;lon;timestamp;P1;durP1;ratioP1;P2;durP2;ratioP2
83184;SDS011;73080;48.768;11.528;2024-02-23T00:01:05;1.67;;;0.60;;
83184;SDS011;73080;48.768;11.528;2024-02-23T00:03:30;2.03;;;0.63;;
83184;SDS011;73080;48.768;11.528;2024-02-23T00:05:56;1.70;;;0.37;;
83184;SDS011;73080;48.768;11.528;2024-02-23T00:08:22;1.08;;;0.40;;
83184;SDS011;73080;48.768;11.528;2024-02-23T00:10:47;1.57;;;0.40;;
83184;SDS011;73080;48.768;11.528;2024-02-23T00:13:12;2.33;;;0.70;;
83184;SDS011;73080;48.768;11.528;2024-02-23T00:15:38;1.43;;;0.63;;
83184;SDS011;73080;48.768;11.528;2024-02-23T00:18:03;1.47;;;0.60;;
83184;SDS011;73080;48.768;11.528;2024-02-23T00:20:29;1.23;;;0.43;;
83184;SDS011;73080;48.768;11.528;2024-02-23T00:22:54;1.35;;;0.60;;
83184;SDS011;73080;48.768;11.528;2024-02-23T00:25:20;1.63;;;0.70;;
83184;SDS011;73080;48.768;11.528;2024-02-23T00:27:45;1.73;;;0.60;;
83184;SDS011;73080;48.768;11.528;2024-02-23T00:30:10;1.15;;;0.50;;
83184;SDS011;73080;48.768;11.528;2024-02-23T00:32:36;1.83;;;1.00;;
83184;SDS011;73080;48.768;11.528;2024-02-23T00:35:01;2.77;;;0.83;;
83184;SDS011;73080;48.768;11.528;2024-02-23T00:37:27;2.50;;;0.87;;
83184;SDS011;73080;48.768;11.528;2024-02-23T00:39:52;3.07;;;0.80;;
83184;SDS011;73080;48.768;11.528;2024-02-23T00:42:17;2.27;;;0.77;;
83184;SDS011;73080;48.768;11.528;2024-02-23T00:44:42;1.57;;;0.50;;
83184;SDS011;73080;48.768;11.528;2024-02-23T00:47:08;1.50;;;0.50;;
83184;SDS011;73080;48.768;11.528;2024-02-23T00:49:33;1.67;;;0.40;;
83184;SDS011;73080;48.768;11.528;2024-02-23T00:51:58;1.80;;;0.60;;
83184;SDS011;73080;48.768;11.528;2024-02-23T00:54:23;0.97;;;0.30;;
83184;SDS011;73080;48.768;11.528;2024-02-23T00:56:49;1.00;;;0.40;;
83184;SDS011;73080;48.768;11.528;2024-02-23T00:59:14;1.83;;;0.70;;
83184;SDS011;73080;48.768;11.528;2024-02-23T01:01:39;1.10;;;0.60;;
83184;SDS011;73080;48.768;11.528;2024-02-23T01:04:05;1.30;;;0.40;;
83184;SDS011;73080;48.768;11.528;2024-02-23T01:06:30;1.10;;;0.40;;
83184;SDS011;73080;48.768;11.528;2024-02-23T01:08:55;0.87;;;0.40;;
83184;SDS011;73080;48.768;11.528;2024-02-23T01:11:20;1.30;;;0.63;;
83184;SDS011;73080;48.768;11.528;2024-02-23T01:13:46;1.63;;;0.60;;
83184;SDS011;73080;48.768;11.528;2024-02-23T01:16:11;0.93;;;0.50;;
83184;SDS011;73080;48.768;11.528;2024-02-23T01:18:36;2.07;;;0.60;;
83184;SDS011;73080;48.768;11.528;2024-02-23T01:21:04;0.97;;;0.43;;
83184;SDS011;73080;48.768;11.528;2024-02-23T01:23:30;1.13;;;0.50;;
83184;SDS011;73080;48.768;11.528;2024-02-23T01:25:55;1.17;;;0.60;;
83184;SDS011;73080;48.768;11.528;2024-02-23T01:28:20;1.63;;;0.70;;
83184;SDS011;73080;48.768;11.528;2024-02-23T01:30:45;1.37;;;0.63;;
83184;SDS011;73080;48.768;11.528;2024-02-23T01:33:11;2.13;;;0.60;;
83184;SDS011;73080;48.768;11.528;2024-02-23T01:35:36;4.20;;;0.30;;
83184;SDS011;73080;48.768;11.528;2024-02-23T01:38:01;0.95;;;0.40;;
83184;SDS011;73080;48.768;11.528;2024-02-23T01:40:27;1.38;;;0.20;;
83184;SDS011;73080;48.768;11.528;2024-02-23T01:43:05;1.67;;;0.70;;
83184;SDS011;73080;48.768;11.528;2024-02-23T01:45:30;1.55;;;0.40;;
83184;SDS011;73080;48.768;11.528;2024-02-23T01:47:56;0.55;;;0.40;;
83184;SDS011;73080;48.768;11.528;2024-02-23T01:50:22;1.45;;;0.70;;
83184;SDS011;73080;48.768;11.528;2024-02-23T01:52:49;1.92;;;0.60;;
83184;SDS011;73080;48.768;11.528;2024-02-23T01:55:14;1.38;;;0.40;;
83184;SDS011;73080;48.768;11.528;2024-02-23T01:57:40;2.22;;;0.80;;
83184;SDS011;73080;48.768;11.528;2024-02-23T02:00:05;0.80;;;0.40;;
83184;SDS011;73080;48.768;11.528;2024-02-23T02:02:32;0.22;;;0.13;;
83184;SDS011;73080;48.768;11.528;2024-02-23T02:04:58;0.65;;;0.30;;
83184;SDS011;73080;48.768;11.528;2024-02-23T02:07:23;0.73;;;0.43;;
83184;SDS011;73080;48.768;11.528;2024-02-23T02:09:48;2.57;;;0.57;;
83184;SDS011;73080;48.768;11.528;2024-02-23T02:12:14;0.73;;;0.30;;
83184;SDS011;73080;48.768;11.528;2024-02-23T02:14:39;0.60;;;0.20;;
83184;SDS011;73080;48.768;11.528;2024-02-23T02:17:04;1.00;;;0.30;;
83184;SDS011;73080;48.768;11.528;2024-02-23T02:19:30;0.83;;;0.47;;
83184;SDS011;73080;48.768;11.528;2024-02-23T02:21:55;2.40;;;0.33;;
83184;SDS011;73080;48.768;11.528;2024-02-23T02:24:21;0.35;;;0.20;;
83184;SDS011;73080;48.768;11.528;2024-02-23T02:26:46;0.57;;;0.30;;
83184;SDS011;73080;48.768;11.528;2024-02-23T02:29:13;0.47;;;0.30;;
83184;SDS011;73080;48.768;11.528;2024-02-23T02:31:38;0.98;;;0.32;;
83184;SDS011;73080;48.768;11.528;2024-02-23T02:34:04;1.37;;;1.30;;
83184;SDS011;73080;48.768;11.528;2024-02-23T02:36:29;0.52;;;0.30;;
83184;SDS011;73080;48.768;11.528;2024-02-23T02:38:54;1.27;;;0.40;;
83184;SDS011;73080;48.768;11.528;2024-02-23T02:41:20;1.00;;;0.33;;
83184;SDS011;73080;48.768;11.528;2024-02-23T02:43:49;1.27;;;0.30;;
83184;SDS011;73080;48.768;11.528;2024-02-23T02:46:14;1.50;;;0.70;;
83184;SDS011;73080;48.768;11.528;2024-02-23T02:48:39;0.73;;;0.30;;
83184;SDS011;73080;48.768;11.528;2024-02-23T02:51:04;0.63;;;0.30;;
83184;SDS011;73080;48.768;11.528;2024-02-23T02:53:30;0.60;;;0.40;;
83184;SDS011;73080;48.768;11.528;2024-02-23T02:55:55;0.70;;;0.40;;
83184;SDS011;73080;48.768;11.528;2024-02-23T02:58:20;1.23;;;0.87;;
83184;SDS011;73080;48.768;11.528;2024-02-23T03:00:45;0.83;;;0.30;;
83184;SDS011;73080;48.768;11.528;2024-02-23T03:03:11;1.70;;;0.30;;
83184;SDS011;73080;48.768;11.528;2024-02-23T03:05:36;0.53;;;0.37;;
83184;SDS011;73080;48.768;11.528;2024-02-23T03:08:01;2.33;;;0.40;;
83184;SDS011;73080;48.768;11.528;2024-02-23T03:10:26;1.73;;;0.57;;
83184;SDS011;73080;48.768;11.528;2024-02-23T03:12:52;1.00;;;0.30;;
83184;SDS011;73080;48.768;11.528;2024-02-23T03:15:17;2.50;;;0.53;;
83184;SDS011;73080;48.768;11.528;2024-02-23T03:17:42;1.27;;;0.50;;
83184;SDS011;73080;48.768;11.528;2024-02-23T03:20:08;0.30;;;0.27;;
83184;SDS011;73080;48.768;11.528;2024-02-23T03:22:33;0.32;;;0.10;;
83184;SDS011;73080;48.768;11.528;2024-02-23T03:24:58;1.47;;;0.70;;
83184;SDS011;73080;48.768;11.528;2024-02-23T03:27:27;0.83;;;0.30;;
83184;SDS011;73080;48.768;11.528;2024-02-23T03:29:53;0.65;;;0.30;;
83184;SDS011;73080;48.768;11.528;2024-02-23T03:32:19;1.43;;;0.37;;
83184;SDS011;73080;48.768;11.528;2024-02-23T03:34:44;2.57;;;0.60;;
83184;SDS011;73080;48.768;11.528;2024-02-23T03:37:09;1.63;;;0.50;;
83184;SDS011;73080;48.768;11.528;2024-02-23T03:39:34;2.20;;;0.60;;
83184;SDS011;73080;48.768;11.528;2024-02-23T03:42:00;1.27;;;0.60;;
83184;SDS011;73080;48.768;11.528;2024-02-23T03:44:25;1.03;;;0.83;;
83184;SDS011;73080;48.768;11.528;2024-02-23T03:46:50;2.33;;;0.50;;
83184;SDS011;73080;48.768;11.528;2024-02-23T03:49:15;0.97;;;0.67;;
83184;SDS011;73080;48.768;11.528;2024-02-23T03:51:41;1.27;;;0.50;;
83184;SDS011;73080;48.768;11.528;2024-02-23T03:54:06;1.40;;;0.47;;
83184;SDS011;73080;48.768;11.528;2024-02-23T03:56:38;3.57;;;0.70;;
83184;SDS011;73080;48.768;11.528;2024-02-23T03:59:07;6.10;;;1.63;;
83184;SDS011;73080;48.768;11.528;2024-02-23T04:01:33;2.13;;;0.60;;
83184;SDS011;73080;48.768;11.528;2024-02-23T04:03:58;2.60;;;1.00;;
83184;SDS011;73080;48.768;11.528;2024-02-23T04:06:23;3.63;;;0.97;;
83184;SDS011;73080;48.768;11.528;2024-02-23T04:08:48;3.80;;;1.10;;
83184;SDS011;73080;48.768;11.528;2024-02-23T04:11:14;2.07;;;0.97;;
83184;SDS011;73080;48.768;11.528;2024-02-23T04:13:39;2.57;;;1.90;;
83184;SDS011;73080;48.768;11.528;2024-02-23T04:16:04;2.50;;;1.03;;
83184;SDS011;73080;48.768;11.528;2024-02-23T04:18:30;1.52;;;0.40;;
83184;SDS011;73080;48.768;11.528;2024-02-23T04:20:55;1.57;;;0.60;;
83184;SDS011;73080;48.768;11.528;2024-02-23T04:23:20;2.40;;;0.60;;
83184;SDS011;73080;48.768;11.528;2024-02-23T04:25:45;1.57;;;0.30;;
83184;SDS011;73080;48.768;11.528;2024-02-23T04:28:11;2.90;;;0.53;;
83184;SDS011;73080;48.768;11.528;2024-02-23T04:30:36;2.33;;;0.40;;
83184;SDS011;73080;48.768;11.528;2024-02-23T04:33:01;1.27;;;0.40;;
83184;SDS011;73080;48.768;11.528;2024-02-23T04:35:26;1.17;;;0.43;;
83184;SDS011;73080;48.768;11.528;2024-02-23T04:37:55;4.55;;;0.60;;
83184;SDS011;73080;48.768;11.528;2024-02-23T04:40:20;1.50;;;0.50;;
83184;SDS011;73080;48.768;11.528;2024-02-23T04:42:45;1.47;;;0.57;;
83184;SDS011;73080;48.768;11.528;2024-02-23T04:45:10;1.13;;;0.60;;
83184;SDS011;73080;48.768;11.528;2024-02-23T04:47:36;1.73;;;0.55;;
83184;SDS011;73080;48.768;11.528;2024-02-23T04:50:01;2.13;;;0.60;;
83184;SDS011;73080;48.768;11.528;2024-02-23T04:52:26;0.87;;;0.40;;
83184;SDS011;73080;48.768;11.528;2024-02-23T04:54:52;1.53;;;0.57;;
83184;SDS011;73080;48.768;11.528;2024-02-23T04:57:17;2.10;;;0.37;;
83184;SDS011;73080;48.768;11.528;2024-02-23T04:59:42;1.23;;;0.80;;
83184;SDS011;73080;48.768;11.528;2024-02-23T05:02:07;0.93;;;0.50;;
83184;SDS011;73080;48.768;11.528;2024-02-23T05:04:33;2.27;;;0.70;;
83184;SDS011;73080;48.768;11.528;2024-02-23T05:06:58;1.47;;;0.53;;
83184;SDS011;73080;48.768;11.528;2024-02-23T05:09:23;1.20;;;0.40;;
83184;SDS011;73080;48.768;11.528;2024-02-23T05:11:49;1.40;;;0.50;;
83184;SDS011;73080;48.768;11.528;2024-02-23T05:14:14;1.43;;;0.47;;
83184;SDS011;73080;48.768;11.528;2024-02-23T05:16:39;1.83;;;0.73;;
83184;SDS011;73080;48.768;11.528;2024-02-23T05:19:04;1.10;;;0.50;;
83184;SDS011;73080;48.768;11.528;2024-02-23T05:21:30;1.80;;;0.40;;
83184;SDS011;73080;48.768;11.528;2024-02-23T05:23:55;2.80;;;0.50;;
83184;SDS011;73080;48.768;11.528;2024-02-23T05:26:20;1.47;;;0.67;;
83184;SDS011;73080;48.768;11.528;2024-02-23T05:28:45;1.15;;;0.50;;
83184;SDS011;73080;48.768;11.528;2024-02-23T05:31:11;0.87;;;0.70;;
83184;SDS011;73080;48.768;11.528;2024-02-23T05:33:36;2.00;;;0.40;;
83184;SDS011;73080;48.768;11.528;2024-02-23T05:36:01;1.40;;;0.30;;
83184;SDS011;73080;48.768;11.528;2024-02-23T05:38:28;1.75;;;0.45;;
83184;SDS011;73080;48.768;11.528;2024-02-23T05:40:53;3.33;;;0.60;;
83184;SDS011;73080;48.768;11.528;2024-02-23T05:43:19;1.77;;;0.70;;
83184;SDS011;73080;48.768;11.528;2024-02-23T05:45:44;2.43;;;0.80;;
83184;SDS011;73080;48.768;11.528;2024-02-23T05:48:09;2.07;;;0.63;;
83184;SDS011;73080;48.768;11.528;2024-02-23T05:50:34;1.63;;;0.70;;
83184;SDS011;73080;48.768;11.528;2024-02-23T05:53:00;1.83;;;0.60;;
83184;SDS011;73080;48.768;11.528;2024-02-23T05:55:25;1.60;;;0.50;;
83184;SDS011;73080;48.768;11.528;2024-02-23T05:57:50;1.23;;;0.40;;
83184;SDS011;73080;48.768;11.528;2024-02-23T06:00:16;2.30;;;0.90;;
83184;SDS011;73080;48.768;11.528;2024-02-23T06:02:42;1.58;;;0.40;;
83184;SDS011;73080;48.768;11.528;2024-02-23T06:05:07;1.83;;;0.60;;
83184;SDS011;73080;48.768;11.528;2024-02-23T06:07:33;3.17;;;0.50;;
83184;SDS011;73080;48.768;11.528;2024-02-23T06:09:58;1.40;;;0.50;;
83184;SDS011;73080;48.768;11.528;2024-02-23T06:12:24;1.70;;;0.60;;
83184;SDS011;73080;48.768;11.528;2024-02-23T06:14:50;3.50;;;0.63;;
83184;SDS011;73080;48.768;11.528;2024-02-23T06:17:15;1.90;;;1.10;;
83184;SDS011;73080;48.768;11.528;2024-02-23T06:19:40;3.07;;;0.90;;
83184;SDS011;73080;48.768;11.528;2024-02-23T06:22:06;1.27;;;0.40;;
83184;SDS011;73080;48.768;11.528;2024-02-23T06:24:31;1.85;;;0.70;;
83184;SDS011;73080;48.768;11.528;2024-02-23T06:26:57;23.67;;;2.30;;
83184;SDS011;73080;48.768;11.528;2024-02-23T06:29:22;10.60;;;1.83;;
83184;SDS011;73080;48.768;11.528;2024-02-23T06:31:47;2.37;;;0.83;;
83184;SDS011;73080;48.768;11.528;2024-02-23T06:34:12;1.03;;;0.37;;
83184;SDS011;73080;48.768;11.528;2024-02-23T06:36:38;1.80;;;0.67;;
83184;SDS011;73080;48.768;11.528;2024-02-23T06:39:03;1.23;;;0.60;;
83184;SDS011;73080;48.768;11.528;2024-02-23T06:41:28;2.00;;;0.63;;
83184;SDS011;73080;48.768;11.528;2024-02-23T06:43:54;1.33;;;0.50;;
83184;SDS011;73080;48.768;11.528;2024-02-23T06:46:19;2.60;;;0.75;;
83184;SDS011;73080;48.768;11.528;2024-02-23T06:48:45;1.80;;;0.63;;
83184;SDS011;73080;48.768;11.528;2024-02-23T06:51:10;1.23;;;0.50;;
83184;SDS011;73080;48.768;11.528;2024-02-23T06:53:36;1.20;;;0.60;;
83184;SDS011;73080;48.768;11.528;2024-02-23T06:56:01;2.55;;;0.70;;
83184;SDS011;73080;48.768;11.528;2024-02-23T06:58:27;1.85;;;0.90;;
83184;SDS011;73080;48.768;11.528;2024-02-23T07:00:52;1.98;;;0.85;;
83184;SDS011;73080;48.768;11.528;2024-02-23T07:03:17;4.18;;;1.20;;
83184;SDS011;73080;48.768;11.528;2024-02-23T07:05:43;2.87;;;0.80;;
83184;SDS011;73080;48.768;11.528;2024-02-23T07:08:11;1.95;;;0.80;;
83184;SDS011;73080;48.768;11.528;2024-02-23T07:13:02;1.93;;;0.43;;
83184;SDS011;73080;48.768;11.528;2024-02-23T07:15:27;1.60;;;0.63;;
83184;SDS011;73080;48.768;11.528;2024-02-23T07:17:53;1.47;;;0.53;;
83184;SDS011;73080;48.768;11.528;2024-02-23T07:20:18;1.83;;;0.73;;
83184;SDS011;73080;48.768;11.528;2024-02-23T07:22:47;2.10;;;0.50;;
83184;SDS011;73080;48.768;11.528;2024-02-23T07:25:16;2.08;;;0.82;;
83184;SDS011;73080;48.768;11.528;2024-02-23T07:27:42;1.08;;;0.50;;
83184;SDS011;73080;48.768;11.528;2024-02-23T07:30:07;1.33;;;0.60;;
83184;SDS011;73080;48.768;11.528;2024-02-23T07:32:33;1.50;;;0.40;;
83184;SDS011;73080;48.768;11.528;2024-02-23T07:34:58;11.60;;;1.90;;
83184;SDS011;73080;48.768;11.528;2024-02-23T07:37:25;25.20;;;3.77;;
83184;SDS011;73080;48.768;11.528;2024-02-23T07:39:51;8.48;;;1.73;;
83184;SDS011;73080;48.768;11.528;2024-02-23T07:42:16;2.87;;;0.73;;
83184;SDS011;73080;48.768;11.528;2024-02-23T07:44:42;2.40;;;0.70;;
83184;SDS011;73080;48.768;11.528;2024-02-23T07:47:07;3.90;;;1.30;;
83184;SDS011;73080;48.768;11.528;2024-02-23T07:49:32;4.70;;;1.50;;
83184;SDS011;73080;48.768;11.528;2024-02-23T07:52:00;2.30;;;0.70;;
83184;SDS011;73080;48.768;11.528;2024-02-23T07:54:25;3.33;;;1.33;;
83184;SDS011;73080;48.768;11.528;2024-02-23T07:56:50;4.97;;;1.13;;
83184;SDS011;73080;48.768;11.528;2024-02-23T07:59:16;4.07;;;1.53;;
83184;SDS011;73080;48.768;11.528;2024-02-23T08:01:41;4.63;;;1.20;;
83184;SDS011;73080;48.768;11.528;2024-02-23T08:04:06;4.30;;;1.50;;
83184;SDS011;73080;48.768;11.528;2024-02-23T08:06:32;4.33;;;1.60;;
83184;SDS011;73080;48.768;11.528;2024-02-23T08:08:57;4.25;;;1.35;;
83184;SDS011;73080;48.768;11.528;2024-02-23T08:11:22;3.40;;;1.20;;
83184;SDS011;73080;48.768;11.528;2024-02-23T08:13:47;3.43;;;1.30;;
83184;SDS011;73080;48.768;11.528;2024-02-23T08:16:15;3.50;;;1.30;;
83184;SDS011;73080;48.768;11.528;2024-02-23T08:18:41;2.92;;;1.15;;
83184;SDS011;73080;48.768;11.528;2024-02-23T08:21:06;3.37;;;1.27;;
83184;SDS011;73080;48.768;11.528;2024-02-23T08:23:31;7.30;;;1.30;;
83184;SDS011;73080;48.768;11.528;2024-02-23T08:25:57;2.60;;;0.63;;
83184;SDS011;73080;48.768;11.528;2024-02-23T08:28:22;1.37;;;0.50;;
83184;SDS011;73080;48.768;11.528;2024-02-23T08:30:48;0.90;;;0.43;;
83184;SDS011;73080;48.768;11.528;2024-02-23T08:33:13;1.70;;;0.50;;
83184;SDS011;73080;48.768;11.528;2024-02-23T08:35:39;2.25;;;0.70;;
83184;SDS011;73080;48.768;11.528;2024-02-23T08:38:04;2.63;;;1.27;;
83184;SDS011;73080;48.768;11.528;2024-02-23T08:40:29;3.50;;;0.90;;
83184;SDS011;73080;48.768;11.528;2024-02-23T08:42:55;2.30;;;1.00;;
83184;SDS011;73080;48.768;11.528;2024-02-23T08:45:20;0.83;;;0.40;;
83184;SDS011;73080;48.768;11.528;2024-02-23T08:47:45;2.23;;;0.77;;
83184;SDS011;73080;48.768;11.528;2024-02-23T08:50:10;1.77;;;0.63;;
83184;SDS011;73080;48.768;11.528;2024-02-23T08:52:36;1.70;;;0.63;;
83184;SDS011;73080;48.768;11.528;2024-02-23T08:55:01;1.77;;;0.60;;
83184;SDS011;73080;48.768;11.528;2024-02-23T08:57:27;2.50;;;0.90;;
83184;SDS011;73080;48.768;11.528;2024-02-23T08:59:52;2.65;;;0.77;;
83184;SDS011;73080;48.768;11.528;2024-02-23T09:02:18;6.10;;;1.50;;
83184;SDS011;73080;48.768;11.528;2024-02-23T09:04:43;3.20;;;0.83;;
83184;SDS011;73080;48.768;11.528;2024-02-23T09:07:08;4.33;;;1.20;;
83184;SDS011;73080;48.768;11.528;2024-02-23T09:09:33;2.43;;;0.90;;
83184;SDS011;73080;48.768;11.528;2024-02-23T09:11:59;2.47;;;0.87;;
83184;SDS011;73080;48.768;11.528;2024-02-23T09:14:24;4.23;;;1.37;;
83184;SDS011;73080;48.768;11.528;2024-02-23T09:16:49;2.83;;;1.07;;
83184;SDS011;73080;48.768;11.528;2024-02-23T09:19:14;5.33;;;2.00;;
83184;SDS011;73080;48.768;11.528;2024-02-23T09:21:40;6.43;;;2.00;;
83184;SDS011;73080;48.768;11.528;2024-02-23T09:24:05;9.87;;;2.03;;
83184;SDS011;73080;48.768;11.528;2024-02-23T09:26:30;3.60;;;1.30;;
83184;SDS011;73080;48.768;11.528;2024-02-23T09:28:56;2.40;;;0.80;;
83184;SDS011;73080;48.768;11.528;2024-02-23T09:31:21;2.73;;;0.60;;
83184;SDS011;73080;48.768;11.528;2024-02-23T09:33:46;1.83;;;0.60;;
83184;SDS011;73080;48.768;11.528;2024-02-23T09:36:12;4.60;;;0.60;;
83184;SDS011;73080;48.768;11.528;2024-02-23T09:38:37;2.22;;;0.60;;
83184;SDS011;73080;48.768;11.528;2024-02-23T09:41:03;3.40;;;0.70;;
83184;SDS011;73080;48.768;11.528;2024-02-23T09:43:29;2.65;;;1.00;;
83184;SDS011;73080;48.768;11.528;2024-02-23T09:45:54;2.75;;;0.90;;
83184;SDS011;73080;48.768;11.528;2024-02-23T09:48:21;6.65;;;1.80;;
83184;SDS011;73080;48.768;11.528;2024-02-23T09:50:48;4.22;;;1.20;;
83184;SDS011;73080;48.768;11.528;2024-02-23T09:53:14;4.03;;;1.40;;
83184;SDS011;73080;48.768;11.528;2024-02-23T09:55:42;2.95;;;1.05;;
83184;SDS011;73080;48.768;11.528;2024-02-23T09:58:08;2.55;;;0.82;;
83184;SDS011;73080;48.768;11.528;2024-02-23T10:00:37;4.10;;;1.25;;
83184;SDS011;73080;48.768;11.528;2024-02-23T10:03:03;2.53;;;1.00;;
83184;SDS011;73080;48.768;11.528;2024-02-23T10:05:29;2.63;;;0.93;;
83184;SDS011;73080;48.768;11.528;2024-02-23T10:07:55;3.35;;;1.48;;
83184;SDS011;73080;48.768;11.528;2024-02-23T10:10:24;5.53;;;2.00;;
83184;SDS011;73080;48.768;11.528;2024-02-23T10:12:54;3.42;;;1.35;;
83184;SDS011;73080;48.768;11.528;2024-02-23T10:15:19;2.43;;;0.93;;
83184;SDS011;73080;48.768;11.528;2024-02-23T10:17:44;2.93;;;1.10;;
83184;SDS011;73080;48.768;11.528;2024-02-23T10:20:10;2.87;;;1.23;;
83184;SDS011;73080;48.768;11.528;2024-02-23T10:22:35;3.63;;;1.30;;
83184;SDS011;73080;48.768;11.528;2024-02-23T10:25:01;3.90;;;1.00;;
83184;SDS011;73080;48.768;11.528;2024-02-23T10:27:26;5.03;;;1.10;;
83184;SDS011;73080;48.768;11.528;2024-02-23T10:29:51;3.00;;;1.10;;
83184;SDS011;73080;48.768;11.528;2024-02-23T10:32:17;7.33;;;3.43;;
83184;SDS011;73080;48.768;11.528;2024-02-23T10:34:44;3.45;;;0.90;;
83184;SDS011;73080;48.768;11.528;2024-02-23T10:37:12;3.08;;;0.75;;
83184;SDS011;73080;48.768;11.528;2024-02-23T10:39:38;4.10;;;0.97;;
83184;SDS011;73080;48.768;11.528;2024-02-23T10:42:04;2.13;;;0.95;;
83184;SDS011;73080;48.768;11.528;2024-02-23T10:44:34;1.85;;;0.77;;
83184;SDS011;73080;48.768;11.528;2024-02-23T10:47:00;4.47;;;1.23;;
83184;SDS011;73080;48.768;11.528;2024-02-23T10:49:26;4.28;;;1.80;;
83184;SDS011;73080;48.768;11.528;2024-02-23T10:51:53;4.43;;;2.17;;
83184;SDS011;73080;48.768;11.528;2024-02-23T10:54:21;3.88;;;1.40;;
83184;SDS011;73080;48.768;11.528;2024-02-23T10:56:47;6.55;;;3.33;;
83184;SDS011;73080;48.768;11.528;2024-02-23T10:59:14;6.30;;;2.42;;
83184;SDS011;73080;48.768;11.528;2024-02-23T11:01:39;8.10;;;3.35;;
83184;SDS011;73080;48.768;11.528;2024-02-23T11:04:06;10.00;;;5.20;;
83184;SDS011;73080;48.768;11.528;2024-02-23T11:06:35;8.02;;;4.22;;
83184;SDS011;73080;48.768;11.528;2024-02-23T11:09:07;6.47;;;2.40;;
83184;SDS011;73080;48.768;11.528;2024-02-23T11:11:33;7.43;;;3.30;;
83184;SDS011;73080;48.768;11.528;2024-02-23T11:13:58;3.87;;;1.50;;
83184;SDS011;73080;48.768;11.528;2024-02-23T11:16:27;6.80;;;2.17;;
83184;SDS011;73080;48.768;11.528;2024-02-23T11:19:05;4.13;;;1.27;;
83184;SDS011;73080;48.768;11.528;2024-02-23T11:21:37;5.10;;;1.83;;
83184;SDS011;73080;48.768;11.528;2024-02-23T11:24:04;4.50;;;1.50;;
83184;SDS011;73080;48.768;11.528;2024-02-23T11:26:30;3.67;;;1.70;;
83184;SDS011;73080;48.768;11.528;2024-02-23T11:28:55;4.85;;;1.52;;
83184;SDS011;73080;48.768;11.528;2024-02-23T11:31:22;5.53;;;2.07;;
83184;SDS011;73080;48.768;11.528;2024-02-23T11:33:48;9.05;;;2.60;;
83184;SDS011;73080;48.768;11.528;2024-02-23T11:38:52;10.73;;;4.80;;
83184;SDS011;73080;48.768;11.528;2024-02-23T11:41:18;4.97;;;1.30;;
83184;SDS011;73080;48.768;11.528;2024-02-23T11:43:46;2.88;;;1.23;;
83184;SDS011;73080;48.768;11.528;2024-02-23T11:46:12;7.50;;;3.00;;
83184;SDS011;73080;48.768;11.528;2024-02-23T11:48:37;4.73;;;1.73;;
83184;SDS011;73080;48.768;11.528;2024-02-23T11:51:02;4.90;;;1.40;;
83184;SDS011;73080;48.768;11.528;2024-02-23T11:53:28;7.45;;;3.03;;
83184;SDS011;73080;48.768;11.528;2024-02-23T11:55:54;8.52;;;2.50;;
83184;SDS011;73080;48.768;11.528;2024-02-23T11:58:19;11.20;;;4.37;;
83184;SDS011;73080;48.768;11.528;2024-02-23T12:00:45;6.27;;;1.67;;
83184;SDS011;73080;48.768;11.528;2024-02-23T12:03:10;3.50;;;1.17;;
83184;SDS011;73080;48.768;11.528;2024-02-23T12:05:35;4.00;;;1.03;;
83184;SDS011;73080;48.768;11.528;2024-02-23T12:08:00;5.20;;;1.67;;
83184;SDS011;73080;48.768;11.528;2024-02-23T12:10:26;7.53;;;1.75;;
83184;SDS011;73080;48.768;11.528;2024-02-23T12:12:53;4.00;;;1.02;;
83184;SDS011;73080;48.768;11.528;2024-02-23T12:15:19;4.13;;;1.42;;
83184;SDS011;73080;48.768;11.528;2024-02-23T12:17:47;2.95;;;0.82;;
83184;SDS011;73080;48.768;11.528;2024-02-23T12:20:14;4.22;;;1.40;;
83184;SDS011;73080;48.768;11.528;2024-02-23T12:22:42;5.75;;;1.77;;
83184;SDS011;73080;48.768;11.528;2024-02-23T12:25:08;4.05;;;1.55;;
83184;SDS011;73080;48.768;11.528;2024-02-23T12:27:33;5.82;;;1.08;;
83184;SDS011;73080;48.768;11.528;2024-02-23T12:29:58;4.30;;;1.20;;
83184;SDS011;73080;48.768;11.528;2024-02-23T12:32:24;4.57;;;1.40;;
83184;SDS011;73080;48.768;11.528;2024-02-23T12:34:52;4.00;;;1.30;;
83184;SDS011;73080;48.768;11.528;2024-02-23T12:37:20;5.72;;;2.20;;
83184;SDS011;73080;48.768;11.528;2024-02-23T12:39:46;4.75;;;1.65;;
83184;SDS011;73080;48.768;11.528;2024-02-23T12:42:11;5.23;;;1.47;;
83184;SDS011;73080;48.768;11.528;2024-02-23T12:44:36;2.73;;;0.87;;
83184;SDS011;73080;48.768;11.528;2024-02-23T12:47:02;8.53;;;2.70;;
83184;SDS011;73080;48.768;11.528;2024-02-23T12:49:27;4.23;;;1.30;;
83184;SDS011;73080;48.768;11.528;2024-02-23T12:51:52;5.03;;;2.20;;
83184;SDS011;73080;48.768;11.528;2024-02-23T12:54:17;4.70;;;1.60;;
83184;SDS011;73080;48.768;11.528;2024-02-23T12:56:43;5.53;;;1.75;;
83184;SDS011;73080;48.768;11.528;2024-02-23T12:59:08;3.77;;;1.10;;
83184;SDS011;73080;48.768;11.528;2024-02-23T13:01:33;5.83;;;1.80;;
83184;SDS011;73080;48.768;11.528;2024-02-23T13:03:59;5.20;;;1.80;;
83184;SDS011;73080;48.768;11.528;2024-02-23T13:06:24;4.47;;;1.30;;
83184;SDS011;73080;48.768;11.528;2024-02-23T13:08:49;4.93;;;1.60;;
83184;SDS011;73080;48.768;11.528;2024-02-23T13:11:15;5.38;;;2.20;;
83184;SDS011;73080;48.768;11.528;2024-02-23T13:13:40;4.93;;;1.17;;
83184;SDS011;73080;48.768;11.528;2024-02-23T13:16:05;2.57;;;0.83;;
83184;SDS011;73080;48.768;11.528;2024-02-23T13:18:31;4.03;;;1.95;;
83184;SDS011;73080;48.768;11.528;2024-02-23T13:20:56;6.20;;;2.40;;
83184;SDS011;73080;48.768;11.528;2024-02-23T13:23:21;6.20;;;2.33;;
83184;SDS011;73080;48.768;11.528;2024-02-23T13:25:46;8.50;;;3.40;;
83184;SDS011;73080;48.768;11.528;2024-02-23T13:28:12;5.20;;;1.73;;
83184;SDS011;73080;48.768;11.528;2024-02-23T13:30:37;8.97;;;2.47;;
83184;SDS011;73080;48.768;11.528;2024-02-23T13:33:03;6.20;;;2.30;;
83184;SDS011;73080;48.768;11.528;2024-02-23T13:35:28;8.43;;;2.63;;
83184;SDS011;73080;48.768;11.528;2024-02-23T13:37:54;8.27;;;2.50;;
83184;SDS011;73080;48.768;11.528;2024-02-23T13:40:19;11.05;;;4.13;;
83184;SDS011;73080;48.768;11.528;2024-02-23T13:42:45;4.05;;;1.40;;
83184;SDS011;73080;48.768;11.528;2024-02-23T13:45:10;11.73;;;5.43;;
83184;SDS011;73080;48.768;11.528;2024-02-23T13:47:35;16.33;;;5.80;;
83184;SDS011;73080;48.768;11.528;2024-02-23T13:50:01;6.70;;;3.17;;
83184;SDS011;73080;48.768;11.528;2024-02-23T13:52:27;6.32;;;2.05;;
83184;SDS011;73080;48.768;11.528;2024-02-23T13:54:52;5.35;;;1.90;;
83184;SDS011;73080;48.768;11.528;2024-02-23T13:57:18;4.03;;;1.43;;
83184;SDS011;73080;48.768;11.528;2024-02-23T13:59:43;5.53;;;2.57;;
83184;SDS011;73080;48.768;11.528;2024-02-23T14:02:08;6.00;;;1.97;;
83184;SDS011;73080;48.768;11.528;2024-02-23T14:04:34;7.88;;;2.10;;
83184;SDS011;73080;48.768;11.528;2024-02-23T14:06:59;5.67;;;1.70;;
83184;SDS011;73080;48.768;11.528;2024-02-23T14:09:24;7.33;;;1.90;;
83184;SDS011;73080;48.768;11.528;2024-02-23T14:11:49;8.20;;;3.10;;
83184;SDS011;73080;48.768;11.528;2024-02-23T14:14:15;6.90;;;2.05;;
83184;SDS011;73080;48.768;11.528;2024-02-23T14:16:40;24.83;;;9.07;;
83184;SDS011;73080;48.768;11.528;2024-02-23T14:19:06;7.63;;;3.37;;
83184;SDS011;73080;48.768;11.528;2024-02-23T14:21:31;24.33;;;9.37;;
83184;SDS011;73080;48.768;11.528;2024-02-23T14:23:56;8.93;;;2.97;;
83184;SDS011;73080;48.768;11.528;2024-02-23T14:26:21;5.90;;;2.47;;
83184;SDS011;73080;48.768;11.528;2024-02-23T14:28:47;8.80;;;2.13;;